sensor_id;sensor_type;location;lat;lon;timestamp;P1;durP1;ratioP1;P2;durP2;ratioP2
37411;SDS011;23278;52.110;6.050;2023-05-23T00:00:56;5.63;;;3.00;;
37411;SDS011;23278;52.110;6.050;2023-05-23T00:03:23;4.60;;;2.67;;
37411;SDS011;23278;52.110;6.050;2023-05-23T00:05:50;5.28;;;2.95;;
37411;SDS011;23278;52.110;6.050;2023-05-23T00:08:16;5.07;;;2.80;;
37411;SDS011;23278;52.110;6.050;2023-05-23T00:10:42;6.80;;;3.33;;
37411;SDS011;23278;52.110;6.050;2023-05-23T00:13:10;6.38;;;2.90;;
37411;SDS011;23278;52.110;6.050;2023-05-23T00:15:39;5.35;;;3.42;;
37411;SDS011;23278;52.110;6.050;2023-05-23T00:18:07;5.10;;;2.38;;
37411;SDS011;23278;52.110;6.050;2023-05-23T00:20:35;4.90;;;3.00;;
37411;SDS011;23278;52.110;6.050;2023-05-23T00:23:05;4.28;;;2.97;;
37411;SDS011;23278;52.110;6.050;2023-05-23T00:25:32;6.35;;;3.50;;
37411;SDS011;23278;52.110;6.050;2023-05-23T00:28:01;5.57;;;3.47;;
37411;SDS011;23278;52.110;6.050;2023-05-23T00:30:28;5.95;;;3.15;;
37411;SDS011;23278;52.110;6.050;2023-05-23T00:32:55;5.25;;;2.40;;
37411;SDS011;23278;52.110;6.050;2023-05-23T00:35:23;3.72;;;2.20;;
37411;SDS011;23278;52.110;6.050;2023-05-23T00:42:30;7.47;;;2.58;;
37411;SDS011;23278;52.110;6.050;2023-05-23T00:44:56;5.13;;;3.05;;
37411;SDS011;23278;52.110;6.050;2023-05-23T00:47:22;8.65;;;3.65;;
37411;SDS011;23278;52.110;6.050;2023-05-23T00:49:48;7.85;;;3.92;;
37411;SDS011;23278;52.110;6.050;2023-05-23T00:52:14;10.18;;;5.00;;
37411;SDS011;23278;52.110;6.050;2023-05-23T00:54:41;6.68;;;3.60;;
37411;SDS011;23278;52.110;6.050;2023-05-23T00:57:07;7.28;;;4.10;;
37411;SDS011;23278;52.110;6.050;2023-05-23T00:59:33;7.90;;;4.18;;
37411;SDS011;23278;52.110;6.050;2023-05-23T01:02:02;11.15;;;5.93;;
37411;SDS011;23278;52.110;6.050;2023-05-23T01:04:28;9.93;;;4.93;;
37411;SDS011;23278;52.110;6.050;2023-05-23T01:06:54;7.00;;;3.83;;
37411;SDS011;23278;52.110;6.050;2023-05-23T01:09:20;7.07;;;3.50;;
37411;SDS011;23278;52.110;6.050;2023-05-23T01:16:57;5.18;;;2.88;;
37411;SDS011;23278;52.110;6.050;2023-05-23T01:28:34;11.32;;;3.15;;
37411;SDS011;23278;52.110;6.050;2023-05-23T01:31:11;3.67;;;2.65;;
37411;SDS011;23278;52.110;6.050;2023-05-23T01:33:39;4.80;;;2.55;;
37411;SDS011;23278;52.110;6.050;2023-05-23T01:36:05;8.20;;;3.25;;
37411;SDS011;23278;52.110;6.050;2023-05-23T01:38:33;5.18;;;3.08;;
37411;SDS011;23278;52.110;6.050;2023-05-23T01:40:59;6.30;;;3.72;;
37411;SDS011;23278;52.110;6.050;2023-05-23T01:43:25;5.00;;;3.30;;
37411;SDS011;23278;52.110;6.050;2023-05-23T01:45:54;8.48;;;4.22;;
37411;SDS011;23278;52.110;6.050;2023-05-23T01:48:22;7.25;;;4.15;;
37411;SDS011;23278;52.110;6.050;2023-05-23T01:50:58;5.00;;;3.38;;
37411;SDS011;23278;52.110;6.050;2023-05-23T01:53:25;5.75;;;3.20;;
37411;SDS011;23278;52.110;6.050;2023-05-23T01:55:56;6.75;;;3.58;;
37411;SDS011;23278;52.110;6.050;2023-05-23T01:58:22;7.78;;;4.13;;
37411;SDS011;23278;52.110;6.050;2023-05-23T02:00:48;5.82;;;3.33;;
37411;SDS011;23278;52.110;6.050;2023-05-23T02:03:14;5.32;;;3.22;;
37411;SDS011;23278;52.110;6.050;2023-05-23T02:05:41;9.40;;;3.88;;
37411;SDS011;23278;52.110;6.050;2023-05-23T02:08:07;8.50;;;3.80;;
37411;SDS011;23278;52.110;6.050;2023-05-23T02:13:30;5.35;;;3.20;;
37411;SDS011;23278;52.110;6.050;2023-05-23T02:15:56;6.30;;;2.72;;
37411;SDS011;23278;52.110;6.050;2023-05-23T02:18:22;6.45;;;3.55;;
37411;SDS011;23278;52.110;6.050;2023-05-23T02:20:51;7.45;;;2.85;;
37411;SDS011;23278;52.110;6.050;2023-05-23T02:23:17;6.72;;;3.65;;
37411;SDS011;23278;52.110;6.050;2023-05-23T02:25:43;7.15;;;3.95;;
37411;SDS011;23278;52.110;6.050;2023-05-23T02:28:09;7.40;;;4.38;;
37411;SDS011;23278;52.110;6.050;2023-05-23T02:30:37;7.20;;;3.90;;
37411;SDS011;23278;52.110;6.050;2023-05-23T02:33:06;4.82;;;3.72;;
37411;SDS011;23278;52.110;6.050;2023-05-23T02:35:32;6.32;;;4.00;;
37411;SDS011;23278;52.110;6.050;2023-05-23T02:37:59;8.02;;;4.07;;
37411;SDS011;23278;52.110;6.050;2023-05-23T02:40:25;9.13;;;4.05;;
37411;SDS011;23278;52.110;6.050;2023-05-23T02:42:51;9.82;;;4.22;;
37411;SDS011;23278;52.110;6.050;2023-05-23T02:45:17;12.55;;;4.45;;
37411;SDS011;23278;52.110;6.050;2023-05-23T02:47:43;7.40;;;4.28;;
37411;SDS011;23278;52.110;6.050;2023-05-23T02:50:09;7.20;;;4.20;;
37411;SDS011;23278;52.110;6.050;2023-05-23T03:01:29;9.52;;;5.07;;
37411;SDS011;23278;52.110;6.050;2023-05-23T03:03:55;13.10;;;5.88;;
37411;SDS011;23278;52.110;6.050;2023-05-23T03:06:21;10.75;;;5.05;;
37411;SDS011;23278;52.110;6.050;2023-05-23T03:08:47;7.78;;;4.60;;
37411;SDS011;23278;52.110;6.050;2023-05-23T03:11:13;9.00;;;4.88;;
37411;SDS011;23278;52.110;6.050;2023-05-23T03:13:42;7.38;;;4.40;;
37411;SDS011;23278;52.110;6.050;2023-05-23T03:16:08;9.63;;;4.18;;
37411;SDS011;23278;52.110;6.050;2023-05-23T03:18:36;10.63;;;4.68;;
37411;SDS011;23278;52.110;6.050;2023-05-23T03:21:01;9.90;;;4.53;;
37411;SDS011;23278;52.110;6.050;2023-05-23T03:23:28;8.02;;;3.80;;
37411;SDS011;23278;52.110;6.050;2023-05-23T03:25:56;8.10;;;4.75;;
37411;SDS011;23278;52.110;6.050;2023-05-23T03:28:24;7.88;;;3.70;;
37411;SDS011;23278;52.110;6.050;2023-05-23T03:30:50;9.25;;;4.13;;
37411;SDS011;23278;52.110;6.050;2023-05-23T03:33:16;9.88;;;4.65;;
37411;SDS011;23278;52.110;6.050;2023-05-23T03:35:42;6.95;;;3.55;;
37411;SDS011;23278;52.110;6.050;2023-05-23T03:38:09;6.55;;;4.47;;
37411;SDS011;23278;52.110;6.050;2023-05-23T03:40:35;12.57;;;3.80;;
37411;SDS011;23278;52.110;6.050;2023-05-23T03:43:02;8.40;;;3.88;;
37411;SDS011;23278;52.110;6.050;2023-05-23T03:45:32;6.00;;;4.18;;
37411;SDS011;23278;52.110;6.050;2023-05-23T03:48:01;6.15;;;3.92;;
37411;SDS011;23278;52.110;6.050;2023-05-23T03:50:27;4.40;;;3.55;;
37411;SDS011;23278;52.110;6.050;2023-05-23T03:52:53;5.93;;;3.83;;
37411;SDS011;23278;52.110;6.050;2023-05-23T03:55:19;8.30;;;3.92;;
37411;SDS011;23278;52.110;6.050;2023-05-23T03:57:55;4.63;;;3.20;;
37411;SDS011;23278;52.110;6.050;2023-05-23T04:00:21;8.05;;;3.35;;
37411;SDS011;23278;52.110;6.050;2023-05-23T04:02:49;8.80;;;5.43;;
37411;SDS011;23278;52.110;6.050;2023-05-23T04:05:18;4.40;;;2.83;;
37411;SDS011;23278;52.110;6.050;2023-05-23T04:07:45;6.75;;;3.92;;
37411;SDS011;23278;52.110;6.050;2023-05-23T04:10:12;8.70;;;3.78;;
37411;SDS011;23278;52.110;6.050;2023-05-23T04:12:47;7.60;;;5.00;;
37411;SDS011;23278;52.110;6.050;2023-05-23T04:15:14;8.45;;;4.40;;
37411;SDS011;23278;52.110;6.050;2023-05-23T04:17:55;7.00;;;3.80;;
37411;SDS011;23278;52.110;6.050;2023-05-23T04:20:22;7.30;;;3.50;;
37411;SDS011;23278;52.110;6.050;2023-05-23T04:22:48;9.63;;;4.25;;
37411;SDS011;23278;52.110;6.050;2023-05-23T04:25:15;9.00;;;4.05;;
37411;SDS011;23278;52.110;6.050;2023-05-23T04:27:50;11.55;;;3.78;;
37411;SDS011;23278;52.110;6.050;2023-05-23T04:30:16;6.22;;;4.15;;
37411;SDS011;23278;52.110;6.050;2023-05-23T04:32:43;14.85;;;3.85;;
37411;SDS011;23278;52.110;6.050;2023-05-23T04:35:09;9.18;;;4.25;;
37411;SDS011;23278;52.110;6.050;2023-05-23T04:37:38;8.15;;;3.63;;
37411;SDS011;23278;52.110;6.050;2023-05-23T04:40:05;9.38;;;4.25;;
37411;SDS011;23278;52.110;6.050;2023-05-23T04:43:04;5.93;;;3.78;;
37411;SDS011;23278;52.110;6.050;2023-05-23T04:45:50;8.57;;;3.38;;
37411;SDS011;23278;52.110;6.050;2023-05-23T04:48:40;12.48;;;4.28;;
37411;SDS011;23278;52.110;6.050;2023-05-23T04:51:06;7.07;;;4.53;;
37411;SDS011;23278;52.110;6.050;2023-05-23T04:53:35;6.82;;;4.07;;
37411;SDS011;23278;52.110;6.050;2023-05-23T04:56:01;13.90;;;5.45;;
37411;SDS011;23278;52.110;6.050;2023-05-23T04:58:28;7.47;;;3.80;;
37411;SDS011;23278;52.110;6.050;2023-05-23T05:00:58;12.48;;;4.47;;
37411;SDS011;23278;52.110;6.050;2023-05-23T05:03:34;9.25;;;4.70;;
37411;SDS011;23278;52.110;6.050;2023-05-23T05:06:01;10.82;;;5.03;;
37411;SDS011;23278;52.110;6.050;2023-05-23T05:08:27;12.52;;;4.65;;
37411;SDS011;23278;52.110;6.050;2023-05-23T05:10:53;9.45;;;4.57;;
37411;SDS011;23278;52.110;6.050;2023-05-23T05:13:20;9.88;;;4.72;;
37411;SDS011;23278;52.110;6.050;2023-05-23T05:15:53;12.98;;;5.68;;
37411;SDS011;23278;52.110;6.050;2023-05-23T05:18:21;8.05;;;4.03;;
37411;SDS011;23278;52.110;6.050;2023-05-23T05:20:48;14.20;;;5.63;;
37411;SDS011;23278;52.110;6.050;2023-05-23T05:23:14;13.63;;;4.57;;
37411;SDS011;23278;52.110;6.050;2023-05-23T05:25:40;13.13;;;3.83;;
37411;SDS011;23278;52.110;6.050;2023-05-23T05:28:06;9.38;;;4.07;;
37411;SDS011;23278;52.110;6.050;2023-05-23T05:30:39;11.35;;;4.40;;
37411;SDS011;23278;52.110;6.050;2023-05-23T05:33:10;11.40;;;5.50;;
37411;SDS011;23278;52.110;6.050;2023-05-23T05:35:36;12.32;;;4.10;;
37411;SDS011;23278;52.110;6.050;2023-05-23T05:38:05;9.02;;;4.13;;
37411;SDS011;23278;52.110;6.050;2023-05-23T05:40:36;9.02;;;4.10;;
37411;SDS011;23278;52.110;6.050;2023-05-23T05:43:02;11.77;;;4.70;;
37411;SDS011;23278;52.110;6.050;2023-05-23T05:45:28;10.25;;;3.90;;
37411;SDS011;23278;52.110;6.050;2023-05-23T05:47:54;11.65;;;3.63;;
37411;SDS011;23278;52.110;6.050;2023-05-23T05:50:21;16.17;;;4.53;;
37411;SDS011;23278;52.110;6.050;2023-05-23T05:52:48;11.73;;;5.13;;
37411;SDS011;23278;52.110;6.050;2023-05-23T05:55:13;8.10;;;3.90;;
37411;SDS011;23278;52.110;6.050;2023-05-23T05:57:44;10.70;;;3.22;;
37411;SDS011;23278;52.110;6.050;2023-05-23T06:00:12;13.23;;;3.45;;
37411;SDS011;23278;52.110;6.050;2023-05-23T06:02:50;11.15;;;3.72;;
37411;SDS011;23278;52.110;6.050;2023-05-23T06:05:33;9.50;;;3.47;;
37411;SDS011;23278;52.110;6.050;2023-05-23T06:07:59;7.13;;;4.00;;
37411;SDS011;23278;52.110;6.050;2023-05-23T06:10:26;10.05;;;3.72;;
37411;SDS011;23278;52.110;6.050;2023-05-23T06:12:52;10.52;;;3.75;;
37411;SDS011;23278;52.110;6.050;2023-05-23T06:15:18;11.10;;;3.40;;
37411;SDS011;23278;52.110;6.050;2023-05-23T06:17:44;6.45;;;3.08;;
37411;SDS011;23278;52.110;6.050;2023-05-23T06:20:10;9.68;;;3.60;;
37411;SDS011;23278;52.110;6.050;2023-05-23T06:22:39;8.23;;;3.80;;
37411;SDS011;23278;52.110;6.050;2023-05-23T06:25:06;8.25;;;3.05;;
37411;SDS011;23278;52.110;6.050;2023-05-23T06:27:32;12.02;;;4.30;;
37411;SDS011;23278;52.110;6.050;2023-05-23T06:29:58;7.20;;;3.17;;
37411;SDS011;23278;52.110;6.050;2023-05-23T06:32:24;8.13;;;3.10;;
37411;SDS011;23278;52.110;6.050;2023-05-23T06:34:50;6.05;;;3.60;;
37411;SDS011;23278;52.110;6.050;2023-05-23T06:37:16;7.18;;;3.13;;
37411;SDS011;23278;52.110;6.050;2023-05-23T06:39:42;5.80;;;2.88;;
37411;SDS011;23278;52.110;6.050;2023-05-23T06:42:08;3.80;;;2.22;;
37411;SDS011;23278;52.110;6.050;2023-05-23T06:44:49;7.07;;;2.42;;
37411;SDS011;23278;52.110;6.050;2023-05-23T06:47:17;6.10;;;2.45;;
37411;SDS011;23278;52.110;6.050;2023-05-23T06:49:43;8.10;;;2.83;;
37411;SDS011;23278;52.110;6.050;2023-05-23T06:52:09;4.85;;;2.10;;
37411;SDS011;23278;52.110;6.050;2023-05-23T06:54:35;5.25;;;2.08;;
37411;SDS011;23278;52.110;6.050;2023-05-23T06:57:02;7.10;;;2.75;;
37411;SDS011;23278;52.110;6.050;2023-05-23T06:59:28;7.22;;;2.03;;
37411;SDS011;23278;52.110;6.050;2023-05-23T07:01:57;6.93;;;2.10;;
37411;SDS011;23278;52.110;6.050;2023-05-23T07:04:23;9.38;;;2.22;;
37411;SDS011;23278;52.110;6.050;2023-05-23T07:06:52;6.15;;;2.83;;
37411;SDS011;23278;52.110;6.050;2023-05-23T07:09:21;7.90;;;2.65;;
37411;SDS011;23278;52.110;6.050;2023-05-23T07:11:48;5.63;;;2.22;;
37411;SDS011;23278;52.110;6.050;2023-05-23T07:14:14;6.20;;;3.08;;
37411;SDS011;23278;52.110;6.050;2023-05-23T07:16:44;8.07;;;3.38;;
37411;SDS011;23278;52.110;6.050;2023-05-23T07:19:11;6.55;;;2.60;;
37411;SDS011;23278;52.110;6.050;2023-05-23T07:21:46;6.13;;;2.50;;
37411;SDS011;23278;52.110;6.050;2023-05-23T07:24:15;6.75;;;2.53;;
37411;SDS011;23278;52.110;6.050;2023-05-23T07:26:41;9.80;;;3.03;;
37411;SDS011;23278;52.110;6.050;2023-05-23T07:29:07;6.53;;;2.80;;
37411;SDS011;23278;52.110;6.050;2023-05-23T07:31:33;6.50;;;2.50;;
37411;SDS011;23278;52.110;6.050;2023-05-23T07:34:00;5.20;;;2.75;;
37411;SDS011;23278;52.110;6.050;2023-05-23T07:36:32;7.53;;;3.13;;
37411;SDS011;23278;52.110;6.050;2023-05-23T07:39:00;9.48;;;2.20;;
37411;SDS011;23278;52.110;6.050;2023-05-23T07:41:26;6.30;;;2.75;;
37411;SDS011;23278;52.110;6.050;2023-05-23T07:43:52;8.93;;;2.88;;
37411;SDS011;23278;52.110;6.050;2023-05-23T07:46:18;9.80;;;2.95;;
37411;SDS011;23278;52.110;6.050;2023-05-23T07:48:44;8.85;;;4.00;;
37411;SDS011;23278;52.110;6.050;2023-05-23T07:51:11;11.82;;;3.13;;
37411;SDS011;23278;52.110;6.050;2023-05-23T07:53:37;5.60;;;2.58;;
37411;SDS011;23278;52.110;6.050;2023-05-23T07:56:06;4.40;;;2.30;;
37411;SDS011;23278;52.110;6.050;2023-05-23T07:58:36;6.65;;;2.20;;
37411;SDS011;23278;52.110;6.050;2023-05-23T08:01:02;7.13;;;2.53;;
37411;SDS011;23278;52.110;6.050;2023-05-23T08:03:46;6.55;;;2.33;;
37411;SDS011;23278;52.110;6.050;2023-05-23T08:06:19;7.55;;;1.50;;
37411;SDS011;23278;52.110;6.050;2023-05-23T08:08:45;5.53;;;1.45;;
37411;SDS011;23278;52.110;6.050;2023-05-23T08:11:13;4.80;;;1.20;;
37411;SDS011;23278;52.110;6.050;2023-05-23T08:13:44;4.45;;;1.00;;
37411;SDS011;23278;52.110;6.050;2023-05-23T08:16:29;7.53;;;1.90;;
37411;SDS011;23278;52.110;6.050;2023-05-23T08:18:55;5.47;;;1.70;;
37411;SDS011;23278;52.110;6.050;2023-05-23T08:21:22;6.85;;;1.45;;
37411;SDS011;23278;52.110;6.050;2023-05-23T08:23:48;5.75;;;1.90;;
37411;SDS011;23278;52.110;6.050;2023-05-23T08:26:14;7.80;;;1.38;;
37411;SDS011;23278;52.110;6.050;2023-05-23T08:28:40;5.82;;;1.40;;
37411;SDS011;23278;52.110;6.050;2023-05-23T08:31:06;7.18;;;1.45;;
37411;SDS011;23278;52.110;6.050;2023-05-23T08:33:33;9.95;;;2.15;;
37411;SDS011;23278;52.110;6.050;2023-05-23T08:35:58;6.88;;;1.15;;
37411;SDS011;23278;52.110;6.050;2023-05-23T08:38:25;6.00;;;1.73;;
37411;SDS011;23278;52.110;6.050;2023-05-23T08:41:19;8.13;;;2.25;;
37411;SDS011;23278;52.110;6.050;2023-05-23T08:43:48;6.40;;;1.90;;
37411;SDS011;23278;52.110;6.050;2023-05-23T08:46:21;9.23;;;2.38;;
37411;SDS011;23278;52.110;6.050;2023-05-23T08:48:54;5.80;;;1.50;;
37411;SDS011;23278;52.110;6.050;2023-05-23T08:51:24;6.60;;;1.45;;
37411;SDS011;23278;52.110;6.050;2023-05-23T08:53:51;6.55;;;1.77;;
37411;SDS011;23278;52.110;6.050;2023-05-23T08:56:20;7.15;;;2.05;;
37411;SDS011;23278;52.110;6.050;2023-05-23T08:58:48;5.80;;;1.52;;
37411;SDS011;23278;52.110;6.050;2023-05-23T09:01:17;8.23;;;2.30;;
37411;SDS011;23278;52.110;6.050;2023-05-23T09:03:47;8.02;;;1.67;;
37411;SDS011;23278;52.110;6.050;2023-05-23T09:06:19;7.47;;;1.45;;
37411;SDS011;23278;52.110;6.050;2023-05-23T09:08:46;7.53;;;3.40;;
37411;SDS011;23278;52.110;6.050;2023-05-23T09:11:15;5.18;;;1.40;;
37411;SDS011;23278;52.110;6.050;2023-05-23T09:13:43;10.57;;;1.55;;
37411;SDS011;23278;52.110;6.050;2023-05-23T09:16:14;5.32;;;1.80;;
37411;SDS011;23278;52.110;6.050;2023-05-23T09:18:49;10.45;;;2.17;;
37411;SDS011;23278;52.110;6.050;2023-05-23T09:21:18;3.63;;;1.25;;
37411;SDS011;23278;52.110;6.050;2023-05-23T09:24:13;4.40;;;1.15;;
37411;SDS011;23278;52.110;6.050;2023-05-23T09:26:39;11.05;;;1.55;;
37411;SDS011;23278;52.110;6.050;2023-05-23T09:29:05;6.32;;;1.80;;
37411;SDS011;23278;52.110;6.050;2023-05-23T09:31:32;10.80;;;1.60;;
37411;SDS011;23278;52.110;6.050;2023-05-23T09:33:57;11.25;;;1.50;;
37411;SDS011;23278;52.110;6.050;2023-05-23T09:36:27;13.68;;;1.92;;
37411;SDS011;23278;52.110;6.050;2023-05-23T09:38:54;5.57;;;2.33;;
37411;SDS011;23278;52.110;6.050;2023-05-23T09:41:23;8.70;;;1.65;;
37411;SDS011;23278;52.110;6.050;2023-05-23T09:43:51;4.70;;;1.27;;
37411;SDS011;23278;52.110;6.050;2023-05-23T09:46:19;6.05;;;1.20;;
37411;SDS011;23278;52.110;6.050;2023-05-23T09:48:48;6.85;;;1.83;;
37411;SDS011;23278;52.110;6.050;2023-05-23T09:51:20;10.73;;;1.92;;
37411;SDS011;23278;52.110;6.050;2023-05-23T09:53:47;8.07;;;1.75;;
37411;SDS011;23278;52.110;6.050;2023-05-23T09:56:16;7.25;;;1.52;;
37411;SDS011;23278;52.110;6.050;2023-05-23T09:58:46;7.00;;;1.27;;
37411;SDS011;23278;52.110;6.050;2023-05-23T10:01:13;7.22;;;1.85;;
37411;SDS011;23278;52.110;6.050;2023-05-23T10:06:30;7.47;;;2.13;;
37411;SDS011;23278;52.110;6.050;2023-05-23T10:09:04;7.72;;;1.75;;
37411;SDS011;23278;52.110;6.050;2023-05-23T10:13:59;8.75;;;2.65;;
37411;SDS011;23278;52.110;6.050;2023-05-23T10:21:50;9.18;;;1.75;;
37411;SDS011;23278;52.110;6.050;2023-05-23T10:24:24;8.00;;;2.00;;
37411;SDS011;23278;52.110;6.050;2023-05-23T10:26:51;9.63;;;2.38;;
37411;SDS011;23278;52.110;6.050;2023-05-23T10:29:19;6.93;;;1.73;;
37411;SDS011;23278;52.110;6.050;2023-05-23T10:31:47;10.48;;;2.40;;
37411;SDS011;23278;52.110;6.050;2023-05-23T10:34:22;5.55;;;1.38;;
37411;SDS011;23278;52.110;6.050;2023-05-23T10:37:02;5.10;;;1.50;;
37411;SDS011;23278;52.110;6.050;2023-05-23T10:42:21;8.88;;;2.00;;
37411;SDS011;23278;52.110;6.050;2023-05-23T10:44:48;6.72;;;2.72;;
37411;SDS011;23278;52.110;6.050;2023-05-23T10:47:24;6.65;;;1.33;;
37411;SDS011;23278;52.110;6.050;2023-05-23T10:49:53;5.13;;;1.67;;
37411;SDS011;23278;52.110;6.050;2023-05-23T10:52:22;8.20;;;3.38;;
37411;SDS011;23278;52.110;6.050;2023-05-23T10:54:52;5.72;;;1.05;;
37411;SDS011;23278;52.110;6.050;2023-05-23T10:57:21;11.32;;;1.63;;
37411;SDS011;23278;52.110;6.050;2023-05-23T10:59:53;7.38;;;1.88;;
37411;SDS011;23278;52.110;6.050;2023-05-23T11:02:26;7.60;;;1.98;;
37411;SDS011;23278;52.110;6.050;2023-05-23T11:08:22;8.95;;;1.92;;
37411;SDS011;23278;52.110;6.050;2023-05-23T11:13:23;6.78;;;1.38;;
37411;SDS011;23278;52.110;6.050;2023-05-23T11:15:50;6.20;;;1.70;;
37411;SDS011;23278;52.110;6.050;2023-05-23T11:18:20;10.55;;;2.00;;
37411;SDS011;23278;52.110;6.050;2023-05-23T11:20:46;4.60;;;1.87;;
37411;SDS011;23278;52.110;6.050;2023-05-23T11:23:13;5.78;;;2.20;;
37411;SDS011;23278;52.110;6.050;2023-05-23T11:28:07;8.02;;;1.60;;
37411;SDS011;23278;52.110;6.050;2023-05-23T11:30:35;8.40;;;1.77;;
37411;SDS011;23278;52.110;6.050;2023-05-23T11:33:05;10.50;;;1.98;;
37411;SDS011;23278;52.110;6.050;2023-05-23T11:35:38;7.18;;;1.92;;
37411;SDS011;23278;52.110;6.050;2023-05-23T11:38:08;6.90;;;1.08;;
37411;SDS011;23278;52.110;6.050;2023-05-23T11:40:36;6.45;;;1.20;;
37411;SDS011;23278;52.110;6.050;2023-05-23T11:43:04;6.03;;;1.42;;
37411;SDS011;23278;52.110;6.050;2023-05-23T11:45:32;6.68;;;1.60;;
37411;SDS011;23278;52.110;6.050;2023-05-23T11:48:08;7.00;;;1.60;;
37411;SDS011;23278;52.110;6.050;2023-05-23T11:53:13;6.78;;;1.25;;
37411;SDS011;23278;52.110;6.050;2023-05-23T11:58:15;5.88;;;1.63;;
37411;SDS011;23278;52.110;6.050;2023-05-23T12:00:42;8.20;;;1.60;;
37411;SDS011;23278;52.110;6.050;2023-05-23T12:03:09;6.75;;;1.73;;
37411;SDS011;23278;52.110;6.050;2023-05-23T12:05:35;5.95;;;1.20;;
37411;SDS011;23278;52.110;6.050;2023-05-23T12:08:02;7.00;;;1.65;;
37411;SDS011;23278;52.110;6.050;2023-05-23T12:10:28;8.90;;;1.90;;
37411;SDS011;23278;52.110;6.050;2023-05-23T12:12:54;7.55;;;1.50;;
37411;SDS011;23278;52.110;6.050;2023-05-23T12:15:24;6.65;;;2.10;;
37411;SDS011;23278;52.110;6.050;2023-05-23T12:17:54;7.75;;;2.33;;
37411;SDS011;23278;52.110;6.050;2023-05-23T12:20:21;5.93;;;1.60;;
37411;SDS011;23278;52.110;6.050;2023-05-23T12:22:48;6.82;;;1.75;;
37411;SDS011;23278;52.110;6.050;2023-05-23T12:25:14;6.65;;;1.60;;
37411;SDS011;23278;52.110;6.050;2023-05-23T12:27:40;4.70;;;1.40;;
37411;SDS011;23278;52.110;6.050;2023-05-23T12:30:17;7.18;;;1.00;;
37411;SDS011;23278;52.110;6.050;2023-05-23T12:32:43;9.27;;;1.23;;
37411;SDS011;23278;52.110;6.050;2023-05-23T12:35:11;5.22;;;1.00;;
37411;SDS011;23278;52.110;6.050;2023-05-23T12:37:44;8.32;;;1.95;;
37411;SDS011;23278;52.110;6.050;2023-05-23T12:40:14;6.70;;;1.75;;
37411;SDS011;23278;52.110;6.050;2023-05-23T12:42:52;5.10;;;1.17;;
37411;SDS011;23278;52.110;6.050;2023-05-23T12:45:22;9.32;;;1.67;;
37411;SDS011;23278;52.110;6.050;2023-05-23T12:47:54;5.30;;;1.35;;
37411;SDS011;23278;52.110;6.050;2023-05-23T12:50:20;4.55;;;1.35;;
37411;SDS011;23278;52.110;6.050;2023-05-23T12:52:46;6.63;;;1.08;;
37411;SDS011;23278;52.110;6.050;2023-05-23T12:55:13;7.25;;;1.55;;
37411;SDS011;23278;52.110;6.050;2023-05-23T12:57:39;6.82;;;1.70;;
37411;SDS011;23278;52.110;6.050;2023-05-23T13:00:05;6.72;;;1.20;;
37411;SDS011;23278;52.110;6.050;2023-05-23T13:02:32;8.43;;;4.95;;
37411;SDS011;23278;52.110;6.050;2023-05-23T13:04:58;5.68;;;1.77;;
37411;SDS011;23278;52.110;6.050;2023-05-23T13:07:24;5.93;;;1.70;;
37411;SDS011;23278;52.110;6.050;2023-05-23T13:09:50;5.03;;;1.30;;
37411;SDS011;23278;52.110;6.050;2023-05-23T13:12:16;4.40;;;0.95;;
37411;SDS011;23278;52.110;6.050;2023-05-23T13:14:42;7.55;;;1.90;;
37411;SDS011;23278;52.110;6.050;2023-05-23T13:17:11;6.82;;;1.35;;
37411;SDS011;23278;52.110;6.050;2023-05-23T13:19:37;5.82;;;1.55;;
37411;SDS011;23278;52.110;6.050;2023-05-23T13:22:04;3.22;;;1.30;;
37411;SDS011;23278;52.110;6.050;2023-05-23T13:24:37;5.53;;;1.20;;
37411;SDS011;23278;52.110;6.050;2023-05-23T13:27:04;5.63;;;1.42;;
37411;SDS011;23278;52.110;6.050;2023-05-23T13:29:31;7.93;;;1.23;;
37411;SDS011;23278;52.110;6.050;2023-05-23T13:31:57;5.55;;;1.00;;
37411;SDS011;23278;52.110;6.050;2023-05-23T13:34:24;4.72;;;1.25;;
37411;SDS011;23278;52.110;6.050;2023-05-23T13:36:51;6.47;;;1.33;;
37411;SDS011;23278;52.110;6.050;2023-05-23T13:39:17;6.00;;;1.25;;
37411;SDS011;23278;52.110;6.050;2023-05-23T13:41:45;5.90;;;1.40;;
37411;SDS011;23278;52.110;6.050;2023-05-23T13:44:12;6.28;;;1.10;;
37411;SDS011;23278;52.110;6.050;2023-05-23T13:46:37;6.63;;;1.50;;
37411;SDS011;23278;52.110;6.050;2023-05-23T13:49:06;4.10;;;1.02;;
37411;SDS011;23278;52.110;6.050;2023-05-23T13:51:32;8.02;;;1.50;;
37411;SDS011;23278;52.110;6.050;2023-05-23T13:53:58;4.28;;;1.40;;
37411;SDS011;23278;52.110;6.050;2023-05-23T13:56:24;5.05;;;1.42;;
37411;SDS011;23278;52.110;6.050;2023-05-23T13:58:49;6.35;;;1.10;;
37411;SDS011;23278;52.110;6.050;2023-05-23T14:01:15;9.18;;;1.55;;
37411;SDS011;23278;52.110;6.050;2023-05-23T14:03:41;5.15;;;1.65;;
37411;SDS011;23278;52.110;6.050;2023-05-23T14:06:07;5.88;;;1.55;;
37411;SDS011;23278;52.110;6.050;2023-05-23T14:08:33;4.07;;;1.08;;
37411;SDS011;23278;52.110;6.050;2023-05-23T14:10:59;6.13;;;1.83;;
37411;SDS011;23278;52.110;6.050;2023-05-23T14:13:25;5.65;;;1.50;;
37411;SDS011;23278;52.110;6.050;2023-05-23T14:15:51;3.05;;;1.35;;
37411;SDS011;23278;52.110;6.050;2023-05-23T14:18:18;3.90;;;0.80;;
37411;SDS011;23278;52.110;6.050;2023-05-23T14:20:44;3.70;;;1.00;;
37411;SDS011;23278;52.110;6.050;2023-05-23T14:23:10;4.78;;;1.13;;
37411;SDS011;23278;52.110;6.050;2023-05-23T14:25:36;4.75;;;1.25;;
37411;SDS011;23278;52.110;6.050;2023-05-23T14:28:02;7.40;;;1.33;;
37411;SDS011;23278;52.110;6.050;2023-05-23T14:30:28;7.28;;;1.50;;
37411;SDS011;23278;52.110;6.050;2023-05-23T14:32:54;4.50;;;1.10;;
37411;SDS011;23278;52.110;6.050;2023-05-23T14:35:20;7.13;;;1.90;;
37411;SDS011;23278;52.110;6.050;2023-05-23T14:37:46;5.47;;;1.40;;
37411;SDS011;23278;52.110;6.050;2023-05-23T14:40:12;5.20;;;1.52;;
37411;SDS011;23278;52.110;6.050;2023-05-23T14:42:40;8.48;;;1.23;;
37411;SDS011;23278;52.110;6.050;2023-05-23T14:45:06;6.07;;;1.20;;
37411;SDS011;23278;52.110;6.050;2023-05-23T14:47:33;6.60;;;1.40;;
37411;SDS011;23278;52.110;6.050;2023-05-23T14:49:59;6.10;;;1.63;;
37411;SDS011;23278;52.110;6.050;2023-05-23T14:52:26;4.82;;;1.80;;
37411;SDS011;23278;52.110;6.050;2023-05-23T14:54:52;6.43;;;1.40;;
37411;SDS011;23278;52.110;6.050;2023-05-23T14:57:21;3.03;;;1.15;;
37411;SDS011;23278;52.110;6.050;2023-05-23T14:59:47;7.22;;;1.30;;
37411;SDS011;23278;52.110;6.050;2023-05-23T15:02:12;7.85;;;2.30;;
37411;SDS011;23278;52.110;6.050;2023-05-23T15:04:38;7.40;;;1.58;;
37411;SDS011;23278;52.110;6.050;2023-05-23T15:07:04;5.47;;;1.27;;
37411;SDS011;23278;52.110;6.050;2023-05-23T15:09:30;5.75;;;1.38;;
37411;SDS011;23278;52.110;6.050;2023-05-23T15:11:56;4.55;;;1.02;;
37411;SDS011;23278;52.110;6.050;2023-05-23T15:14:22;4.85;;;1.20;;
37411;SDS011;23278;52.110;6.050;2023-05-23T15:16:53;3.60;;;1.10;;
37411;SDS011;23278;52.110;6.050;2023-05-23T15:19:19;7.72;;;1.35;;
37411;SDS011;23278;52.110;6.050;2023-05-23T15:21:45;5.68;;;1.00;;
37411;SDS011;23278;52.110;6.050;2023-05-23T15:24:11;3.38;;;0.90;;
37411;SDS011;23278;52.110;6.050;2023-05-23T15:26:37;5.30;;;1.10;;
37411;SDS011;23278;52.110;6.050;2023-05-23T15:29:03;4.85;;;1.08;;
37411;SDS011;23278;52.110;6.050;2023-05-23T15:31:31;3.38;;;0.88;;
37411;SDS011;23278;52.110;6.050;2023-05-23T15:33:57;4.68;;;1.35;;
37411;SDS011;23278;52.110;6.050;2023-05-23T15:36:23;4.03;;;1.35;;
37411;SDS011;23278;52.110;6.050;2023-05-23T15:38:49;6.25;;;1.52;;
37411;SDS011;23278;52.110;6.050;2023-05-23T15:41:15;5.57;;;2.10;;
37411;SDS011;23278;52.110;6.050;2023-05-23T15:43:41;8.23;;;1.80;;
37411;SDS011;23278;52.110;6.050;2023-05-23T15:46:06;3.60;;;1.50;;
37411;SDS011;23278;52.110;6.050;2023-05-23T15:48:32;7.85;;;1.95;;